sensor_id;sensor_type;location;lat;lon;timestamp;pressure;altitude;pressure_sealevel;temperature;humidity
61318;BME280;47201;40.428;-8.436;2022-12-29T00:00:28;101294.56;;;12.92;100.00
61318;BME280;47201;40.428;-8.436;2022-12-29T00:02:29;101283.19;;;12.93;100.00
61318;BME280;47201;40.428;-8.436;2022-12-29T00:04:29;101284.97;;;12.94;100.00
61318;BME280;47201;40.428;-8.436;2022-12-29T00:06:30;101288.44;;;12.94;100.00
61318;BME280;47201;40.428;-8.436;2022-12-29T00:08:31;101286.69;;;12.92;100.00
61318;BME280;47201;40.428;-8.436;2022-12-29T00:10:40;101286.69;;;12.93;100.00
61318;BME280;47201;40.428;-8.436;2022-12-29T00:12:41;101282.34;;;12.94;100.00
61318;BME280;47201;40.428;-8.436;2022-12-29T00:14:59;101283.19;;;12.96;100.00
61318;BME280;47201;40.428;-8.436;2022-12-29T00:17:18;101272.69;;;12.94;100.00
61318;BME280;47201;40.428;-8.436;2022-12-29T00:19:19;101283.19;;;12.97;100.00
61318;BME280;47201;40.428;-8.436;2022-12-29T00:21:38;101272.69;;;12.94;100.00
61318;BME280;47201;40.428;-8.436;2022-12-29T00:23:57;101276.19;;;12.96;100.00
61318;BME280;47201;40.428;-8.436;2022-12-29T00:26:19;101265.72;;;12.95;100.00
61318;BME280;47201;40.428;-8.436;2022-12-29T00:28:45;101271.84;;;12.94;100.00
61318;BME280;47201;40.428;-8.436;2022-12-29T00:31:07;101269.22;;;12.94;100.00
61318;BME280;47201;40.428;-8.436;2022-12-29T00:33:30;101272.69;;;12.94;100.00
61318;BME280;47201;40.428;-8.436;2022-12-29T00:35:52;101273.59;;;12.92;100.00
61318;BME280;47201;40.428;-8.436;2022-12-29T00:37:54;101275.31;;;12.90;100.00
61318;BME280;47201;40.428;-8.436;2022-12-29T00:40:13;101270.09;;;12.88;100.00
61318;BME280;47201;40.428;-8.436;2022-12-29T00:42:33;101266.59;;;12.89;100.00
61318;BME280;47201;40.428;-8.436;2022-12-29T00:45:11;101261.34;;;12.91;100.00
61318;BME280;47201;40.428;-8.436;2022-12-29T00:47:12;101261.34;;;12.91;100.00
61318;BME280;47201;40.428;-8.436;2022-12-29T00:49:13;101263.09;;;12.90;100.00
61318;BME280;47201;40.428;-8.436;2022-12-29T00:51:32;101263.97;;;12.94;100.00
61318;BME280;47201;40.428;-8.436;2022-12-29T00:53:32;101258.72;;;12.91;100.00
61318;BME280;47201;40.428;-8.436;2022-12-29T00:55:36;101263.94;;;12.92;100.00
61318;BME280;47201;40.428;-8.436;2022-12-29T00:57:36;101264.84;;;12.93;100.00
61318;BME280;47201;40.428;-8.436;2022-12-29T00:59:40;101267.44;;;12.97;100.00
61318;BME280;47201;40.428;-8.436;2022-12-29T01:01:41;101268.31;;;12.96;100.00
61318;BME280;47201;40.428;-8.436;2022-12-29T01:03:41;101269.19;;;12.97;100.00
61318;BME280;47201;40.428;-8.436;2022-12-29T01:05:42;101270.94;;;12.96;100.00
61318;BME280;47201;40.428;-8.436;2022-12-29T01:07:43;101265.69;;;12.96;100.00
61318;BME280;47201;40.428;-8.436;2022-12-29T01:09:43;101267.44;;;13.00;100.00
61318;BME280;47201;40.428;-8.436;2022-12-29T01:12:03;101256.94;;;12.97;100.00
61318;BME280;47201;40.428;-8.436;2022-12-29T01:14:04;101255.19;;;12.98;100.00
61318;BME280;47201;40.428;-8.436;2022-12-29T01:16:05;101252.56;;;12.99;100.00
61318;BME280;47201;40.428;-8.436;2022-12-29T01:18:05;101242.97;;;12.98;100.00
61318;BME280;47201;40.428;-8.436;2022-12-29T01:20:06;101237.72;;;12.98;100.00
61318;BME280;47201;40.428;-8.436;2022-12-29T01:22:07;101232.44;;;13.00;100.00
61318;BME280;47201;40.428;-8.436;2022-12-29T01:24:07;101240.31;;;13.00;100.00
61318;BME280;47201;40.428;-8.436;2022-12-29T01:26:11;101236.81;;;12.99;100.00
61318;BME280;47201;40.428;-8.436;2022-12-29T01:28:12;101236.81;;;13.01;100.00
61318;BME280;47201;40.428;-8.436;2022-12-29T01:30:12;101231.53;;;13.04;100.00
61318;BME280;47201;40.428;-8.436;2022-12-29T01:32:13;101230.69;;;13.04;100.00
61318;BME280;47201;40.428;-8.436;2022-12-29T01:34:13;101225.44;;;13.04;100.00
61318;BME280;47201;40.428;-8.436;2022-12-29T01:36:15;101226.28;;;13.04;100.00
61318;BME280;47201;40.428;-8.436;2022-12-29T01:38:17;101216.69;;;13.06;100.00
61318;BME280;47201;40.428;-8.436;2022-12-29T01:40:17;101216.69;;;13.06;100.00
61318;BME280;47201;40.428;-8.436;2022-12-29T01:42:19;101212.31;;;13.08;100.00
61318;BME280;47201;40.428;-8.436;2022-12-29T01:44:39;101207.94;;;13.10;100.00
61318;BME280;47201;40.428;-8.436;2022-12-29T01:46:49;101203.53;;;13.12;100.00
61318;BME280;47201;40.428;-8.436;2022-12-29T01:48:53;101204.41;;;13.14;100.00
61318;BME280;47201;40.428;-8.436;2022-12-29T01:50:54;101201.78;;;13.14;100.00
61318;BME280;47201;40.428;-8.436;2022-12-29T01:54:59;101200.00;;;13.18;100.00
61318;BME280;47201;40.428;-8.436;2022-12-29T01:57:01;101191.28;;;13.17;100.00
61318;BME280;47201;40.428;-8.436;2022-12-29T01:59:04;101197.38;;;13.18;100.00
61318;BME280;47201;40.428;-8.436;2022-12-29T02:01:06;101188.63;;;13.19;100.00
61318;BME280;47201;40.428;-8.436;2022-12-29T02:03:09;101191.22;;;13.22;100.00
61318;BME280;47201;40.428;-8.436;2022-12-29T02:05:16;101192.13;;;13.23;100.00
61318;BME280;47201;40.428;-8.436;2022-12-29T02:07:20;101187.72;;;13.23;100.00
61318;BME280;47201;40.428;-8.436;2022-12-29T02:09:21;101192.13;;;13.23;100.00
61318;BME280;47201;40.428;-8.436;2022-12-29T02:11:25;101193.88;;;13.21;100.00
61318;BME280;47201;40.428;-8.436;2022-12-29T02:13:27;101193.00;;;13.20;100.00
61318;BME280;47201;40.428;-8.436;2022-12-29T02:15:43;101195.63;;;13.20;100.00
61318;BME280;47201;40.428;-8.436;2022-12-29T02:26:47;101184.25;;;13.23;100.00
61318;BME280;47201;40.428;-8.436;2022-12-29T02:41:39;101184.22;;;13.24;100.00
61318;BME280;47201;40.428;-8.436;2022-12-29T02:45:47;101188.59;;;13.22;100.00
61318;BME280;47201;40.428;-8.436;2022-12-29T02:48:07;101180.72;;;13.22;100.00
61318;BME280;47201;40.428;-8.436;2022-12-29T02:52:27;101180.72;;;13.24;100.00
61318;BME280;47201;40.428;-8.436;2022-12-29T02:54:30;101171.97;;;13.23;100.00
61318;BME280;47201;40.428;-8.436;2022-12-29T02:56:42;101179.88;;;13.22;100.00
61318;BME280;47201;40.428;-8.436;2022-12-29T02:58:43;101184.22;;;13.24;100.00
61318;BME280;47201;40.428;-8.436;2022-12-29T03:01:08;101187.75;;;13.25;100.00
61318;BME280;47201;40.428;-8.436;2022-12-29T03:07:22;101168.47;;;13.24;100.00
61318;BME280;47201;40.428;-8.436;2022-12-29T03:11:28;101167.59;;;13.25;100.00
61318;BME280;47201;40.428;-8.436;2022-12-29T03:13:52;101161.47;;;13.25;100.00
61318;BME280;47201;40.428;-8.436;2022-12-29T03:18:37;101158.81;;;13.28;100.00
61318;BME280;47201;40.428;-8.436;2022-12-29T03:20:58;101159.69;;;13.30;100.00
61318;BME280;47201;40.428;-8.436;2022-12-29T03:23:01;101162.31;;;13.31;100.00
61318;BME280;47201;40.428;-8.436;2022-12-29T03:25:08;101162.31;;;13.30;100.00
61318;BME280;47201;40.428;-8.436;2022-12-29T03:27:11;101164.97;;;13.28;100.00
61318;BME280;47201;40.428;-8.436;2022-12-29T03:29:14;101161.44;;;13.29;100.00
61318;BME280;47201;40.428;-8.436;2022-12-29T03:31:19;101157.09;;;13.28;100.00
61318;BME280;47201;40.428;-8.436;2022-12-29T03:33:23;101152.69;;;13.30;100.00
61318;BME280;47201;40.428;-8.436;2022-12-29T03:35:25;101150.94;;;13.31;100.00
61318;BME280;47201;40.428;-8.436;2022-12-29T03:37:30;101146.56;;;13.30;100.00
61318;BME280;47201;40.428;-8.436;2022-12-29T03:39:32;101147.44;;;13.30;100.00
61318;BME280;47201;40.428;-8.436;2022-12-29T03:41:33;101146.56;;;13.30;100.00
61318;BME280;47201;40.428;-8.436;2022-12-29T03:43:37;101144.78;;;13.30;100.00
61318;BME280;47201;40.428;-8.436;2022-12-29T03:45:37;101142.19;;;13.29;100.00
61318;BME280;47201;40.428;-8.436;2022-12-29T03:47:38;101138.72;;;13.28;100.00
61318;BME280;47201;40.428;-8.436;2022-12-29T03:49:39;101144.81;;;13.29;100.00
61318;BME280;47201;40.428;-8.436;2022-12-29T03:51:42;101142.16;;;13.30;100.00
61318;BME280;47201;40.428;-8.436;2022-12-29T03:53:42;101141.31;;;13.30;100.00
61318;BME280;47201;40.428;-8.436;2022-12-29T03:55:43;101146.56;;;13.30;100.00
61318;BME280;47201;40.428;-8.436;2022-12-29T03:57:45;101145.66;;;13.32;100.00
61318;BME280;47201;40.428;-8.436;2022-12-29T03:59:50;101142.19;;;13.32;100.00
61318;BME280;47201;40.428;-8.436;2022-12-29T04:01:51;101147.44;;;13.32;100.00
61318;BME280;47201;40.428;-8.436;2022-12-29T04:03:52;101143.03;;;13.32;100.00
61318;BME280;47201;40.428;-8.436;2022-12-29T04:05:54;101138.66;;;13.33;100.00
61318;BME280;47201;40.428;-8.436;2022-12-29T04:07:54;101140.41;;;13.34;100.00
61318;BME280;47201;40.428;-8.436;2022-12-29T04:09:55;101138.66;;;13.33;100.00
61318;BME280;47201;40.428;-8.436;2022-12-29T04:11:58;101141.28;;;13.33;100.00
61318;BME280;47201;40.428;-8.436;2022-12-29T04:13:59;101143.91;;;13.33;100.00
61318;BME280;47201;40.428;-8.436;2022-12-29T04:16:01;101143.03;;;13.34;100.00
61318;BME280;47201;40.428;-8.436;2022-12-29T04:18:01;101143.03;;;13.34;100.00
61318;BME280;47201;40.428;-8.436;2022-12-29T04:20:03;101146.53;;;13.35;100.00
61318;BME280;47201;40.428;-8.436;2022-12-29T04:22:22;101143.91;;;13.36;100.00
61318;BME280;47201;40.428;-8.436;2022-12-29T04:24:23;101141.28;;;13.36;100.00
61318;BME280;47201;40.428;-8.436;2022-12-29T04:26:24;101138.66;;;13.36;100.00
61318;BME280;47201;40.428;-8.436;2022-12-29T04:28:37;101148.28;;;13.39;100.00
61318;BME280;47201;40.428;-8.436;2022-12-29T04:31:04;101148.31;;;13.40;100.00
61318;BME280;47201;40.428;-8.436;2022-12-29T04:33:10;101151.81;;;13.39;100.00
61318;BME280;47201;40.428;-8.436;2022-12-29T04:35:13;101147.41;;;13.40;100.00
61318;BME280;47201;40.428;-8.436;2022-12-29T04:37:13;101150.03;;;13.41;100.00
61318;BME280;47201;40.428;-8.436;2022-12-29T04:39:15;101149.13;;;13.42;100.00
61318;BME280;47201;40.428;-8.436;2022-12-29T04:41:17;101150.03;;;13.41;100.00
61318;BME280;47201;40.428;-8.436;2022-12-29T04:43:17;101154.41;;;13.42;100.00
61318;BME280;47201;40.428;-8.436;2022-12-29T04:45:51;101144.75;;;13.44;100.00
61318;BME280;47201;40.428;-8.436;2022-12-29T04:48:06;101143.88;;;13.45;100.00
61318;BME280;47201;40.428;-8.436;2022-12-29T04:50:23;101150.00;;;13.47;100.00
61318;BME280;47201;40.428;-8.436;2022-12-29T04:52:50;101150.00;;;13.49;100.00
61318;BME280;47201;40.428;-8.436;2022-12-29T04:54:51;101150.00;;;13.49;100.00
61318;BME280;47201;40.428;-8.436;2022-12-29T04:56:53;101149.97;;;13.51;100.00
61318;BME280;47201;40.428;-8.436;2022-12-29T04:58:54;101159.59;;;13.48;100.00
61318;BME280;47201;40.428;-8.436;2022-12-29T05:00:55;101150.00;;;13.44;100.00
61318;BME280;47201;40.428;-8.436;2022-12-29T05:03:00;101145.63;;;13.43;100.00
61318;BME280;47201;40.428;-8.436;2022-12-29T05:05:01;101138.69;;;13.39;100.00
61318;BME280;47201;40.428;-8.436;2022-12-29T05:07:02;101135.16;;;13.37;100.00
61318;BME280;47201;40.428;-8.436;2022-12-29T05:09:03;101139.53;;;13.33;100.00
61318;BME280;47201;40.428;-8.436;2022-12-29T05:11:04;101136.94;;;13.32;100.00
61318;BME280;47201;40.428;-8.436;2022-12-29T05:13:05;101143.91;;;13.31;100.00
61318;BME280;47201;40.428;-8.436;2022-12-29T05:15:06;101140.44;;;13.31;100.00
61318;BME280;47201;40.428;-8.436;2022-12-29T05:17:08;101142.16;;;13.30;100.00
61318;BME280;47201;40.428;-8.436;2022-12-29T05:19:09;101150.06;;;13.30;100.00
61318;BME280;47201;40.428;-8.436;2022-12-29T05:21:09;101150.06;;;13.30;100.00
61318;BME280;47201;40.428;-8.436;2022-12-29T05:23:11;101143.06;;;13.29;100.00
61318;BME280;47201;40.428;-8.436;2022-12-29T05:25:13;101147.44;;;13.26;100.00
61318;BME280;47201;40.428;-8.436;2022-12-29T05:27:36;101149.22;;;13.24;100.00
61318;BME280;47201;40.428;-8.436;2022-12-29T05:29:47;101148.34;;;13.23;100.00
61318;BME280;47201;40.428;-8.436;2022-12-29T05:31:48;101152.72;;;13.23;100.00
61318;BME280;47201;40.428;-8.436;2022-12-29T05:33:50;101152.72;;;13.23;100.00
61318;BME280;47201;40.428;-8.436;2022-12-29T05:35:51;101160.59;;;13.24;100.00
61318;BME280;47201;40.428;-8.436;2022-12-29T05:37:53;101163.19;;;13.26;100.00
61318;BME280;47201;40.428;-8.436;2022-12-29T05:39:53;101158.84;;;13.25;100.00
61318;BME280;47201;40.428;-8.436;2022-12-29T05:41:54;101156.22;;;13.25;100.00
61318;BME280;47201;40.428;-8.436;2022-12-29T05:44:21;101161.47;;;13.25;100.00
61318;BME280;47201;40.428;-8.436;2022-12-29T05:46:40;101158.84;;;13.26;100.00
61318;BME280;47201;40.428;-8.436;2022-12-29T05:48:43;101162.34;;;13.25;100.00
61318;BME280;47201;40.428;-8.436;2022-12-29T05:50:52;101158.84;;;13.23;100.00
61318;BME280;47201;40.428;-8.436;2022-12-29T05:52:58;101158.00;;;13.21;100.00
61318;BME280;47201;40.428;-8.436;2022-12-29T05:54:59;101164.97;;;13.22;100.00
61318;BME280;47201;40.428;-8.436;2022-12-29T05:57:01;101159.72;;;13.21;100.00
61318;BME280;47201;40.428;-8.436;2022-12-29T05:59:03;101167.63;;;13.19;100.00
61318;BME280;47201;40.428;-8.436;2022-12-29T06:01:04;101160.63;;;13.20;100.00
61318;BME280;47201;40.428;-8.436;2022-12-29T06:03:04;101156.25;;;13.18;100.00
61318;BME280;47201;40.428;-8.436;2022-12-29T06:05:05;101158.00;;;13.20;100.00
61318;BME280;47201;40.428;-8.436;2022-12-29T06:07:06;101161.50;;;13.18;100.00
61318;BME280;47201;40.428;-8.436;2022-12-29T06:09:19;101167.66;;;13.17;100.00
61318;BME280;47201;40.428;-8.436;2022-12-29T06:11:19;101162.38;;;13.16;100.00
61318;BME280;47201;40.428;-8.436;2022-12-29T06:13:26;101165.03;;;13.14;100.00
61318;BME280;47201;40.428;-8.436;2022-12-29T06:15:28;101164.16;;;13.14;100.00
61318;BME280;47201;40.428;-8.436;2022-12-29T06:17:29;101165.03;;;13.14;100.00
61318;BME280;47201;40.428;-8.436;2022-12-29T06:19:30;101166.78;;;13.14;100.00
61318;BME280;47201;40.428;-8.436;2022-12-29T06:21:30;101173.78;;;13.13;100.00
61318;BME280;47201;40.428;-8.436;2022-12-29T06:23:34;101172.03;;;13.12;100.00
61318;BME280;47201;40.428;-8.436;2022-12-29T06:25:35;101177.28;;;13.12;100.00
61318;BME280;47201;40.428;-8.436;2022-12-29T06:27:36;101172.03;;;13.12;100.00
61318;BME280;47201;40.428;-8.436;2022-12-29T06:29:37;101171.16;;;13.13;100.00
61318;BME280;47201;40.428;-8.436;2022-12-29T06:31:40;101169.41;;;13.12;100.00
61318;BME280;47201;40.428;-8.436;2022-12-29T06:33:40;101158.06;;;13.07;100.00
61318;BME280;47201;40.428;-8.436;2022-12-29T06:35:42;101165.03;;;13.11;100.00
61318;BME280;47201;40.428;-8.436;2022-12-29T06:37:42;101165.03;;;13.11;100.00
61318;BME280;47201;40.428;-8.436;2022-12-29T06:39:43;101168.53;;;13.13;100.00
61318;BME280;47201;40.428;-8.436;2022-12-29T06:41:51;101171.13;;;13.15;100.00
61318;BME280;47201;40.428;-8.436;2022-12-29T06:44:23;101166.75;;;13.17;100.00
61318;BME280;47201;40.428;-8.436;2022-12-29T06:46:29;101166.75;;;13.18;100.00
61318;BME280;47201;40.428;-8.436;2022-12-29T06:48:29;101173.75;;;13.20;100.00
61318;BME280;47201;40.428;-8.436;2022-12-29T06:50:30;101179.88;;;13.18;100.00
61318;BME280;47201;40.428;-8.436;2022-12-29T06:52:30;101179.88;;;13.18;100.00
61318;BME280;47201;40.428;-8.436;2022-12-29T06:54:31;101174.63;;;13.17;100.00
61318;BME280;47201;40.428;-8.436;2022-12-29T06:56:31;101158.88;;;13.17;100.00
61318;BME280;47201;40.428;-8.436;2022-12-29T06:58:32;101175.53;;;13.17;100.00
61318;BME280;47201;40.428;-8.436;2022-12-29T07:00:32;101173.75;;;13.18;100.00
61318;BME280;47201;40.428;-8.436;2022-12-29T07:02:33;101179.00;;;13.18;100.00
61318;BME280;47201;40.428;-8.436;2022-12-29T07:04:33;101176.38;;;13.18;100.00
61318;BME280;47201;40.428;-8.436;2022-12-29T07:06:34;101167.63;;;13.21;100.00
61318;BME280;47201;40.428;-8.436;2022-12-29T07:08:35;101171.13;;;13.20;100.00
61318;BME280;47201;40.428;-8.436;2022-12-29T07:10:35;101172.88;;;13.19;100.00
61318;BME280;47201;40.428;-8.436;2022-12-29T07:12:36;101166.75;;;13.20;100.00
61318;BME280;47201;40.428;-8.436;2022-12-29T07:14:36;101165.00;;;13.19;100.00
61318;BME280;47201;40.428;-8.436;2022-12-29T07:16:37;101166.75;;;13.18;100.00
61318;BME280;47201;40.428;-8.436;2022-12-29T07:18:37;101178.13;;;13.21;100.00
61318;BME280;47201;40.428;-8.436;2022-12-29T07:20:38;101178.97;;;13.23;100.00
61318;BME280;47201;40.428;-8.436;2022-12-29T07:22:38;101174.59;;;13.22;100.00
61318;BME280;47201;40.428;-8.436;2022-12-29T07:24:39;101186.88;;;13.23;100.00
61318;BME280;47201;40.428;-8.436;2022-12-29T07:26:40;101182.50;;;13.22;100.00
61318;BME280;47201;40.428;-8.436;2022-12-29T07:28:41;101179.84;;;13.23;100.00
61318;BME280;47201;40.428;-8.436;2022-12-29T07:30:42;101180.72;;;13.22;100.00
61318;BME280;47201;40.428;-8.436;2022-12-29T07:32:42;101186.88;;;13.23;100.00
61318;BME280;47201;40.428;-8.436;2022-12-29T07:34:43;101186.00;;;13.24;100.00
61318;BME280;47201;40.428;-8.436;2022-12-29T07:36:45;101191.25;;;13.24;100.00
61318;BME280;47201;40.428;-8.436;2022-12-29T07:38:49;101195.59;;;13.23;100.00
61318;BME280;47201;40.428;-8.436;2022-12-29T07:40:49;101193.00;;;13.22;100.00
61318;BME280;47201;40.428;-8.436;2022-12-29T07:42:50;101190.34;;;13.26;100.00
61318;BME280;47201;40.428;-8.436;2022-12-29T07:44:59;101182.47;;;13.23;100.00
61318;BME280;47201;40.428;-8.436;2022-12-29T07:47:20;101183.34;;;13.22;100.00
61318;BME280;47201;40.428;-8.436;2022-12-29T07:49:20;101188.63;;;13.24;100.00
61318;BME280;47201;40.428;-8.436;2022-12-29T07:51:21;101190.38;;;13.25;100.00
61318;BME280;47201;40.428;-8.436;2022-12-29T07:53:22;101182.47;;;13.23;100.00
61318;BME280;47201;40.428;-8.436;2022-12-29T07:55:22;101183.34;;;13.22;100.00
61318;BME280;47201;40.428;-8.436;2022-12-29T07:57:23;101185.97;;;13.25;100.00
61318;BME280;47201;40.428;-8.436;2022-12-29T07:59:23;101186.84;;;13.24;100.00
61318;BME280;47201;40.428;-8.436;2022-12-29T08:01:24;101187.75;;;13.25;100.00
61318;BME280;47201;40.428;-8.436;2022-12-29T08:03:24;101179.84;;;13.26;100.00
61318;BME280;47201;40.428;-8.436;2022-12-29T08:05:26;101185.06;;;13.28;100.00
61318;BME280;47201;40.428;-8.436;2022-12-29T08:07:26;101193.84;;;13.28;100.00
61318;BME280;47201;40.428;-8.436;2022-12-29T08:09:27;101195.56;;;13.31;100.00
61318;BME280;47201;40.428;-8.436;2022-12-29T08:11:27;101189.44;;;13.32;100.00
61318;BME280;47201;40.428;-8.436;2022-12-29T08:13:28;101195.56;;;13.32;100.00
61318;BME280;47201;40.428;-8.436;2022-12-29T08:15:28;101196.44;;;13.35;100.00
61318;BME280;47201;40.428;-8.436;2022-12-29T08:17:29;101192.03;;;13.35;100.00
61318;BME280;47201;40.428;-8.436;2022-12-29T08:19:29;101195.53;;;13.37;100.00
61318;BME280;47201;40.428;-8.436;2022-12-29T08:21:30;101199.06;;;13.39;100.00
61318;BME280;47201;40.428;-8.436;2022-12-29T08:23:31;101199.06;;;13.44;100.00
61318;BME280;47201;40.428;-8.436;2022-12-29T08:25:32;101198.16;;;13.46;100.00
61318;BME280;47201;40.428;-8.436;2022-12-29T08:27:32;101203.38;;;13.53;100.00
61318;BME280;47201;40.428;-8.436;2022-12-29T08:29:33;101203.34;;;13.56;100.00
61318;BME280;47201;40.428;-8.436;2022-12-29T08:31:33;101198.06;;;13.59;100.00
61318;BME280;47201;40.428;-8.436;2022-12-29T08:33:34;101193.66;;;13.64;100.00
61318;BME280;47201;40.428;-8.436;2022-12-29T08:35:34;101199.75;;;13.71;100.00
61318;BME280;47201;40.428;-8.436;2022-12-29T08:37:35;101204.97;;;13.75;100.00
61318;BME280;47201;40.428;-8.436;2022-12-29T08:39:36;101203.19;;;13.80;100.00
61318;BME280;47201;40.428;-8.436;2022-12-29T08:41:36;101205.75;;;13.87;100.00
61318;BME280;47201;40.428;-8.436;2022-12-29T08:43:37;101204.88;;;13.91;100.00
61318;BME280;47201;40.428;-8.436;2022-12-29T08:45:37;101203.09;;;13.93;100.00
61318;BME280;47201;40.428;-8.436;2022-12-29T08:47:38;101205.72;;;13.93;100.00
61318;BME280;47201;40.428;-8.436;2022-12-29T08:49:38;101207.47;;;13.92;100.00
61318;BME280;47201;40.428;-8.436;2022-12-29T08:51:39;101211.00;;;13.90;100.00
61318;BME280;47201;40.428;-8.436;2022-12-29T08:53:39;101215.38;;;13.89;100.00
61318;BME280;47201;40.428;-8.436;2022-12-29T08:55:40;101220.63;;;13.89;100.00
61318;BME280;47201;40.428;-8.436;2022-12-29T08:57:41;101225.91;;;13.91;100.00
61318;BME280;47201;40.428;-8.436;2022-12-29T08:59:48;101218.00;;;13.89;100.00
61318;BME280;47201;40.428;-8.436;2022-12-29T09:01:49;101223.28;;;13.88;100.00
61318;BME280;47201;40.428;-8.436;2022-12-29T09:03:49;101218.91;;;13.87;100.00
61318;BME280;47201;40.428;-8.436;2022-12-29T09:05:50;101232.06;;;13.88;100.00
61318;BME280;47201;40.428;-8.436;2022-12-29T09:07:51;101233.78;;;13.91;100.00
61318;BME280;47201;40.428;-8.436;2022-12-29T09:09:52;101226.75;;;13.91;100.00
61318;BME280;47201;40.428;-8.436;2022-12-29T09:11:52;101231.13;;;13.92;100.00
61318;BME280;47201;40.428;-8.436;2022-12-29T09:13:53;101227.59;;;13.95;100.00
61318;BME280;47201;40.428;-8.436;2022-12-29T09:15:59;101227.59;;;13.95;100.00
61318;BME280;47201;40.428;-8.436;2022-12-29T09:18:00;101228.47;;;13.97;100.00
61318;BME280;47201;40.428;-8.436;2022-12-29T09:20:03;101229.28;;;14.05;100.00
61318;BME280;47201;40.428;-8.436;2022-12-29T09:22:04;101224.88;;;14.07;100.00
61318;BME280;47201;40.428;-8.436;2022-12-29T09:24:04;101231.88;;;14.11;100.00
61318;BME280;47201;40.428;-8.436;2022-12-29T09:26:05;101234.50;;;14.11;100.00
61318;BME280;47201;40.428;-8.436;2022-12-29T09:28:06;101237.13;;;14.15;100.00
61318;BME280;47201;40.428;-8.436;2022-12-29T09:30:08;101226.53;;;14.21;100.00
61318;BME280;47201;40.428;-8.436;2022-12-29T09:32:10;101236.13;;;14.28;100.00
61318;BME280;47201;40.428;-8.436;2022-12-29T09:34:10;101230.81;;;14.34;100.00
61318;BME280;47201;40.428;-8.436;2022-12-29T09:36:11;101228.97;;;14.41;100.00
61318;BME280;47201;40.428;-8.436;2022-12-29T09:38:11;101234.22;;;14.44;100.00
61318;BME280;47201;40.428;-8.436;2022-12-29T09:42:27;101221.91;;;14.51;100.00
61318;BME280;47201;40.428;-8.436;2022-12-29T09:46:47;101225.38;;;14.53;100.00
61318;BME280;47201;40.428;-8.436;2022-12-29T09:48:50;101227.09;;;14.54;100.00
61318;BME280;47201;40.428;-8.436;2022-12-29T09:50:52;101228.84;;;14.56;100.00
61318;BME280;47201;40.428;-8.436;2022-12-29T09:55:13;101229.75;;;14.54;100.00
61318;BME280;47201;40.428;-8.436;2022-12-29T09:57:17;101230.59;;;14.59;100.00
61318;BME280;47201;40.428;-8.436;2022-12-29T09:59:22;101222.69;;;14.60;100.00
61318;BME280;47201;40.428;-8.436;2022-12-29T10:03:32;101230.50;;;14.68;100.00
61318;BME280;47201;40.428;-8.436;2022-12-29T10:05:39;101225.19;;;14.73;100.00
61318;BME280;47201;40.428;-8.436;2022-12-29T10:07:52;101225.13;;;14.79;100.00
61318;BME280;47201;40.428;-8.436;2022-12-29T10:10:17;101225.00;;;14.93;100.00
61318;BME280;47201;40.428;-8.436;2022-12-29T10:16:38;101234.13;;;15.34;100.00
61318;BME280;47201;40.428;-8.436;2022-12-29T10:18:53;101237.50;;;15.46;100.00
61318;BME280;47201;40.428;-8.436;2022-12-29T10:21:08;101235.69;;;15.52;100.00
61318;BME280;47201;40.428;-8.436;2022-12-29T10:25:20;101237.25;;;15.64;100.00
61318;BME280;47201;40.428;-8.436;2022-12-29T10:27:22;101233.53;;;15.79;100.00
61318;BME280;47201;40.428;-8.436;2022-12-29T10:29:32;101242.19;;;15.89;100.00
61318;BME280;47201;40.428;-8.436;2022-12-29T10:31:40;101244.63;;;16.01;100.00
61318;BME280;47201;40.428;-8.436;2022-12-29T10:33:43;101248.91;;;16.10;100.00
61318;BME280;47201;40.428;-8.436;2022-12-29T10:35:43;101244.72;;;15.97;100.00
61318;BME280;47201;40.428;-8.436;2022-12-29T10:40:12;101241.22;;;15.96;100.00
61318;BME280;47201;40.428;-8.436;2022-12-29T10:44:24;101247.53;;;15.86;100.00
61318;BME280;47201;40.428;-8.436;2022-12-29T10:46:29;101237.84;;;15.86;100.00
61318;BME280;47201;40.428;-8.436;2022-12-29T10:48:31;101240.44;;;15.90;100.00
61318;BME280;47201;40.428;-8.436;2022-12-29T10:50:32;101238.66;;;15.90;100.00
61318;BME280;47201;40.428;-8.436;2022-12-29T10:52:33;101235.13;;;15.93;100.00
61318;BME280;47201;40.428;-8.436;2022-12-29T10:54:54;101234.19;;;15.95;100.00
61318;BME280;47201;40.428;-8.436;2022-12-29T10:58:57;101230.63;;;15.99;100.00
61318;BME280;47201;40.428;-8.436;2022-12-29T11:01:00;101229.50;;;16.14;100.00
61318;BME280;47201;40.428;-8.436;2022-12-29T11:07:32;101228.75;;;16.58;100.00
61318;BME280;47201;40.428;-8.436;2022-12-29T11:09:33;101227.88;;;16.57;100.00
61318;BME280;47201;40.428;-8.436;2022-12-29T11:11:35;101224.66;;;16.41;100.00
61318;BME280;47201;40.428;-8.436;2022-12-29T11:13:55;101223.72;;;16.44;100.00
61318;BME280;47201;40.428;-8.436;2022-12-29T11:15:56;101224.66;;;16.41;100.00
61318;BME280;47201;40.428;-8.436;2022-12-29T11:17:57;101226.31;;;16.47;100.00
61318;BME280;47201;40.428;-8.436;2022-12-29T11:19:59;101223.34;;;16.65;100.00
61318;BME280;47201;40.428;-8.436;2022-12-29T11:22:23;101216.34;;;16.63;100.00
61318;BME280;47201;40.428;-8.436;2022-12-29T11:24:26;101216.19;;;16.71;100.00
61318;BME280;47201;40.428;-8.436;2022-12-29T11:26:27;101211.94;;;16.63;100.00
61318;BME280;47201;40.428;-8.436;2022-12-29T11:28:28;101207.44;;;16.69;100.00
61318;BME280;47201;40.428;-8.436;2022-12-29T11:30:31;101202.63;;;16.91;100.00
61318;BME280;47201;40.428;-8.436;2022-12-29T11:32:32;101210.50;;;17.36;100.00
61318;BME280;47201;40.428;-8.436;2022-12-29T11:34:33;101203.19;;;17.48;100.00
61318;BME280;47201;40.428;-8.436;2022-12-29T11:36:34;101205.19;;;17.38;100.00